Home > Products > Valid Products > TAF

000
FTUS41 KAKQ 240500
TAFRIC
TAF
KRIC 240539Z 2406/2506 VRB06KT P6SM SCT120 BKN250
     FM241300 35007KT P6SM VCSH BKN250
     FM241500 VRB06KT 6SM -SHRA SCT020 BKN040 BKN100
     FM250200 35003KT P6SM BKN035 BKN080 OVC150=



000
FTUS41 KAKQ 240500
TAFSBY
TAF
KSBY 240539Z 2406/2506 VRB05KT P6SM -SHRA SCT025 BKN040 BKN120
     FM240800 VRB04KT 3SM BR SCT005 BKN040 BKN120
     FM241300 35008KT P6SM BKN025 BKN100 BKN200
     FM241600 33006KT 6SM -SHRA BKN030 BKN070 BKN120
     FM250300 36003KT P6SM BKN045 BKN100
      AMD NOT SKED=



000
FTUS41 KAKQ 240500
TAFECG
TAF
KECG 240539Z 2406/2506 VRB06KT P6SM SCT100 SCT250
     FM241600 30008KT P6SM VCSH BKN035 BKN080 BKN200
     FM241800 VRB06KT 6SM -SHRA BKN030 BKN070 OVC150=



000
FTUS41 KAKQ 240500
TAFPHF
TAF
KPHF 240539Z 2406/2506 VRB06KT P6SM SCT060 SCT100 BKN250
     FM241500 36007KT P6SM VCSH BKN030 BKN100 OVC200
     FM241800 VRB06KT 6SM -SHRA BKN025 BKN070 OVC120=



000
FTUS41 KAKQ 240500
TAFORF
TAF
KORF 240539Z 2406/2506 VRB06KT P6SM SCT060 SCT100 BKN250
     FM241500 02008KT P6SM VCSH BKN030 BKN100 OVC200
     FM241800 VRB06KT 6SM -SHRA BKN025 BKN070 OVC120=



000
FTUS41 KAKQ 240200 AAA
TAFSBY
TAF AMD
KSBY 240230Z 2403/2424 20005KT P6SM SCT040 BKN200
      TEMPO 2403/2405 VRB18G30KT 3SM TSRA BR SCT030CB OVC060
     FM240800 32003KT 3SM BR BKN060 BKN120
     FM241400 35007KT P6SM BKN250
     FM241900 33006KT P6SM SCT100 BKN250
      AMD NOT SKED=



000
FTUS41 KAKQ 232300
TAFRIC
TAF
KRIC 232340Z 2400/2424 21010KT P6SM SCT250
     FM240200 23006KT P6SM SCT120 BKN250
     FM240800 30004KT P6SM SCT060 BKN120
     FM241400 35006KT P6SM BKN250
     FM241900 04007KT 5SM -SHRA BKN050=



000
FTUS41 KAKQ 232300
TAFPHF
TAF
KPHF 232340Z 2400/2424 22008KT P6SM BKN250
     FM240600 25006KT P6SM BKN120
     FM241000 27004KT P6SM SCT015 BKN050
     FM241400 32006KT P6SM BKN050 OVC120
     FM242000 02005KT 5SM -SHRA BKN025 OVC050=



000
FTUS41 KAKQ 232300
TAFORF
TAF
KORF 232340Z 2400/2424 22011KT P6SM BKN250
     FM241000 25006KT P6SM SCT015 BKN050
     FM241500 33007KT P6SM BKN050 OVC120
     FM242100 03005KT 5SM -SHRA BKN025 OVC050=



000
FTUS41 KAKQ 232300
TAFSBY
TAF
KSBY 232340Z 2400/2424 20005KT P6SM BKN250
     FM240400 23004KT P6SM SCT060 BKN120
      TEMPO 2404/2406 VRB15G25KT 3SM SHRA SCT025 OVC050
     FM240800 32003KT 3SM BR BKN060 BKN120
     FM241400 35007KT P6SM BKN250
     FM241900 33006KT P6SM SCT100 BKN250
      AMD NOT SKED=



000
FTUS41 KAKQ 232300
TAFECG
TAF
KECG 232340Z 2400/2424 21008KT P6SM SCT250
     FM241200 25007KT P6SM SCT020 BKN120
     FM242000 34009KT P6SM BKN040 OVC100=



000
FTUS41 KAKQ 232100 CCA
TAFRIC
TAF COR
KRIC 232100Z 2321/2418 20012G20KT P6SM SCT050 BKN250
     FM232300 21010KT P6SM BKN100
     FM240200 23006KT P6SM SCT120 BKN250
     FM240800 30004KT P6SM SCT060 BKN120=



000
FTUS41 KAKQ 232000 AAA
TAFRIC
TAF AMD
KRIC 232056Z 2321/2418 20012G20KT P6SM SCT050 BKN100
     FM240200 23006KT P6SM SCT120 BKN250
     FM240800 30004KT P6SM SCT060 BKN120=



000
FTUS41 KAKQ 231700
TAFORF
TAF
KORF 231737Z 2318/2418 23010KT P6SM SCT035
     FM240000 22008KT P6SM BKN250
     FM241000 25006KT P6SM SCT015 BKN060
     FM241500 33007KT P6SM BKN025 OVC120=



000
FTUS41 KAKQ 231700
TAFECG
TAF
KECG 231737Z 2318/2418 22009KT P6SM SCT035
     FM240000 22008KT P6SM SKC
     FM241200 27007KT P6SM SCT025 BKN120=



000
FTUS41 KAKQ 231700
TAFPHF
TAF
KPHF 231737Z 2318/2418 21009KT P6SM SCT035
     FM240000 22008KT P6SM BKN250
     FM240600 25006KT P6SM BKN120
     FM241400 32006KT P6SM BKN025 BKN120=



000
FTUS41 KAKQ 231700
TAFRIC
TAF
KRIC 231737Z 2318/2418 22010KT P6SM SCT035
     FM240000 27005KT P6SM SCT120 BKN250
     FM240600 30004KT P6SM SCT060 BKN120=



000
FTUS41 KAKQ 231700
TAFSBY
TAF
KSBY 231737Z 2318/2418 22010KT P6SM SCT035
     FM240000 20005KT P6SM BKN250
     FM240300 23004KT P6SM SCT060 BKN120
     FM240800 27003KT 3SM BR BKN060 BKN120
      AMD NOT SKED=



000
FTUS41 KAKQ 231400 AAA
TAFECG
TAF AMD
KECG 231410Z 2314/2412 27006KT P6SM SCT015 BKN025
     FM231500 24008KT P6SM SCT020
     FM231800 21009KT P6SM BKN060
     FM240000 22007KT P6SM SKC=



000
FTUS41 KAKQ 231300 AAA
TAFPHF
TAF AMD
KPHF 231350Z 2314/2412 VRB03KT P6SM OVC010
     FM231430 20006KT P6SM SCT010 BKN250
     FM231900 21008KT P6SM BKN040 BKN250=



000
FTUS41 KAKQ 231300 AAA
TAFORF
TAF AMD
KORF 231315Z 2313/2412 23005KT P6SM OVC012
     FM231430 23006KT P6SM SCT012
     FM231800 20008KT P6SM SCT060 BKN250=



000
FTUS41 KAKQ 231300 AAA
TAFRIC
TAF AMD
KRIC 231312Z 2313/2412 22006KT P6SM SCT250
     FM231500 22010KT P6SM SCT060 BKN250
     FM240000 25006KT P6SM BKN250=



000
FTUS41 KAKQ 231100 CCA
TAFSBY
TAF COR
KSBY 231143Z 2312/2412 00000KT 1SM BR BKN002
      TEMPO 2312/2313 1/2SM FG VV001
     FM231330 21003KT 5SM BR SCT006 BKN250
     FM231400 25006KT P6SM BKN250
     FM231700 22010KT P6SM SCT060 BKN250
      AMD NOT SKED=



000
FTUS41 KAKQ 231100 CCA
TAFRIC
TAF COR
KRIC 231143Z 2312/2412 VRB03KT 1SM BR OVC006
      TEMPO 2312/2313 VRB03KT 1/2SM FG BKN002
     FM231330 22006KT P6SM SCT006 BKN250
     FM231500 22010KT P6SM BKN060 BKN250=



000
FTUS41 KAKQ 231100 CCA
TAFPHF
TAF COR
KPHF 231143Z 2312/2412 VRB03KT P6SM OVC007
     FM231400 20006KT P6SM SCT020 BKN100
     FM231900 21008KT P6SM BKN040 BKN200=



000
FTUS41 KAKQ 231100 CCA
TAFORF
TAF COR
KORF 231143Z 2312/2412 VRB04KT P6SM BKN009 BKN120
     FM231400 24006KT P6SM SCT020 BKN100
     FM231900 20008KT P6SM BKN060 BKN250=



000
FTUS41 KAKQ 231100 CCA
TAFECG
TAF COR
KECG 231143Z 2312/2412 26004KT P6SM OVC004
     FM231300 25006KT P6SM BKN007 BKN012
     FM231400 24006KT P6SM BKN012 BKN120
     FM231600 21009KT P6SM -SHRA BKN020 BKN120=



000
FTUS41 KAKQ 231100
TAFORF
TAF
KORF 231120Z 2312/2412 VRB04KT P6SM BKN009 BKN120
     FM231400 VRB06KT P6SM SCT020 BKN100
     FM231900 20008KT P6SM VCSH BKN040 BKN200=



000
FTUS41 KAKQ 231100
TAFECG
TAF
KECG 231120Z 2312/2412 22004KT P6SM BKN006 BKN020
     FM231400 24006KT P6SM BKN012 BKN120
     FM231600 21009KT P6SM -SHRA BKN020 BKN120=



000
FTUS41 KAKQ 231100
TAFSBY
TAF
KSBY 231120Z 2312/2412 00000KT 1SM BR OVC001
     FM231330 22006KT 4SM BR SCT015 SCT250
     FM232000 20007KT P6SM VCSH SCT050 SCT120 BKN250
      AMD NOT SKED=



000
FTUS41 KAKQ 231100
TAFPHF
TAF
KPHF 231120Z 2312/2412 VRB03KT P6SM OVC007
     FM231400 20006KT P6SM SCT020 BKN100
     FM231900 21008KT P6SM VCSH BKN040 BKN200=



000
FTUS41 KAKQ 231100
TAFRIC
TAF
KRIC 231120Z 2312/2412 VRB03KT P6SM SCT250
      TEMPO 2312/2313 VRB03KT 1SM MIFG SCT005 SCT250
     FM231300 22006KT P6SM SCT060 SCT250
     FM232000 22009KT P6SM VCSH BKN060 BKN200=



000
FTUS41 KAKQ 231000 AAC
TAFECG
TAF AMD
KECG 231020Z 2310/2406 22004KT P6SM BKN006 BKN020
     FM231400 24006KT P6SM BKN012 BKN100
     FM231600 21009KT P6SM -SHRA BKN020 BKN100=



000
FTUS41 KAKQ 231000 AAC
TAFPHF
TAF AMD
KPHF 231018Z 2310/2406 VRB03KT P6SM OVC007
     FM231400 20006KT P6SM SCT020 BKN100
     FM231900 21008KT P6SM VCSH BKN040 BKN200=



000
FTUS41 KAKQ 231000 AAB
TAFORF
TAF AMD
KORF 231003Z 2310/2406 VRB04KT P6SM BKN009 BKN120
     FM231400 VRB06KT P6SM SCT020 BKN100
     FM231900 20008KT P6SM VCSH BKN040 BKN200=



000
FTUS41 KAKQ 230800 AAA
TAFRIC
TAF AMD
KRIC 230859Z 2309/2406 VRB03KT P6SM SCT250
      TEMPO 2309/2312 VRB03KT 1SM MIFG SCT005 SCT250
     FM231300 22006KT P6SM SCT060 SCT250
     FM232000 22009KT P6SM VCSH BKN060 BKN250=



000
FTUS41 KAKQ 230800 AAA
TAFORF
TAF AMD
KORF 230839Z 2309/2406 00000KT P6SM BKN007
     FM231000 VRB04KT P6SM BKN005 BKN120
     FM231400 VRB06KT P6SM SCT020 BKN100
     FM231900 20008KT P6SM VCSH BKN040 BKN200=



000
FTUS41 KAKQ 230800 AAB
TAFPHF
TAF AMD
KPHF 230836Z 2309/2406 VRB03KT P6SM OVC009
      TEMPO 2309/2312 00000KT 4SM BR OVC005
     FM231300 VRB04KT P6SM BKN012
     FM231400 20006KT P6SM SCT020 BKN100
     FM231900 21008KT P6SM VCSH BKN040 BKN200=



000
FTUS41 KAKQ 230800 AAB
TAFECG
TAF AMD
KECG 230834Z 2309/2406 22004KT P6SM VCSH BKN008 BKN025
      TEMPO 2309/2310 00000KT 3SM BR BKN010 BKN030
     FM231000 VRB03KT 4SM BR BKN006
     FM231400 24006KT P6SM BKN012 BKN100
     FM231600 21009KT P6SM -SHRA BKN020 BKN100=



000
FTUS41 KAKQ 230800 AAA
TAFSBY
TAF AMD
KSBY 230817Z 2308/2406 00000KT 1SM BR OVC001
      TEMPO 2308/2312 VRB03KT 3SM BR BKN001 BKN250
     FM231300 22006KT 4SM BR SCT015 SCT250
     FM232000 20007KT P6SM VCSH SCT050 SCT120 BKN250
      AMD NOT SKED=



000
FTUS41 KAKQ 230600 AAA
TAFPHF
TAF AMD
KPHF 230608Z 2306/2406 VRB03KT 4SM BR SCT004 BKN010 BKN120
     FM230900 VRB03KT P6SM BKN004 BKN120
     FM231400 20006KT P6SM SCT020 BKN100
     FM231900 21008KT P6SM VCSH BKN040 BKN200=



000
FTUS41 KAKQ 230600 AAA
TAFECG
TAF AMD
KECG 230607Z 2306/2406 VRB03KT P6SM VCSH SCT015 SCT040 BKN120
      TEMPO 2306/2308 00000KT 1SM BR BKN010 BKN030
     FM230900 VRB03KT 4SM BR BKN004 BKN100
     FM231400 24006KT P6SM BKN012 BKN100
     FM231600 21009KT P6SM -SHRA BKN020 BKN100=



000
FTUS41 KAKQ 230500
TAFORF
TAF
KORF 230536Z 2306/2406 VRB04KT P6SM SCT009 SCT120
     FM231000 VRB04KT P6SM BKN005 BKN120
     FM231400 VRB06KT P6SM SCT020 BKN100
     FM231900 20008KT P6SM VCSH BKN040 BKN200=



000
FTUS41 KAKQ 230500
TAFSBY
TAF
KSBY 230536Z 2306/2406 VRB03KT P6SM BKN250
      TEMPO 2309/2313 00000KT 1SM BR BKN001 BKN250
     FM231300 22006KT 4SM BR SCT015 SCT250
     FM232000 20007KT P6SM VCSH SCT050 SCT120 BKN250
      AMD NOT SKED=



000
FTUS41 KAKQ 230500
TAFRIC
TAF
KRIC 230536Z 2306/2406 VRB03KT P6SM SCT250
     FM231000 20003KT 5SM BR SCT005 SCT250
     FM231300 22006KT P6SM SCT060 SCT250
     FM232000 22009KT P6SM VCSH BKN060 BKN250=



000
FTUS41 KAKQ 230500
TAFECG
TAF
KECG 230536Z 2306/2406 VRB03KT P6SM VCSH SCT015 SCT040 BKN120
     FM230900 VRB03KT 4SM BR BKN004 BKN100
     FM231400 24006KT P6SM BKN012 BKN100
     FM231600 21009KT P6SM -SHRA BKN020 BKN100=



000
FTUS41 KAKQ 230500
TAFPHF
TAF
KPHF 230536Z 2306/2406 VRB03KT P6SM FEW009 SCT120
     FM230900 VRB03KT P6SM BKN005 BKN120
     FM231400 20006KT P6SM SCT020 BKN100
     FM231900 21008KT P6SM VCSH BKN040 BKN200=



000
FTUS41 KAKQ 230500 AAA
TAFECG
TAF AMD
KECG 230501Z 2305/2324 VRB03KT P6SM SCT015 SCT040 BKN120
     FM231000 VRB03KT 4SM BR BKN004 BKN100
     FM231400 26005KT P6SM BKN015 BKN150
     FM231600 23008KT P6SM BKN035 BKN150=



000
FTUS41 KAKQ 230400 AAA
TAFRIC
TAF AMD
KRIC 230457Z 2305/2324 VRB03KT P6SM SCT250
     FM231000 22003KT 5SM BR SCT005 SCT250
     FM231300 24006KT P6SM SCT250=



000
FTUS41 KAKQ 230400 AAA
TAFORF
TAF AMD
KORF 230454Z 2305/2324 11006KT P6SM BKN250
     FM230900 24005KT P6SM BKN015
     FM231400 25008KT P6SM BKN050=



000
FTUS41 KAKQ 230400 AAA
TAFSBY
TAF AMD
KSBY 230454Z 2305/2324 VRB03KT P6SM BKN250
     FM230900 00000KT 1SM BR BKN001
     FM231300 22004KT 4SM BR SCT250
     FM231500 22007KT P6SM SCT250
      AMD NOT SKED=



000
FTUS41 KAKQ 222300
TAFECG
TAF
KECG 222340Z 2300/2324 10009KT P6SM VCSH SCT025 OVC040
      TEMPO 2300/2302 BKN015
     FM230300 22004KT P6SM SCT025 BKN100
     FM231000 24003KT 4SM BR OVC004
     FM231400 26005KT P6SM BKN015
     FM231600 23008KT P6SM SCT250=



000
FTUS41 KAKQ 222300
TAFORF
TAF
KORF 222340Z 2300/2324 11006KT P6SM BKN250
      TEMPO 2300/2302 BKN015
     FM230900 24005KT P6SM BKN015
     FM231400 25008KT P6SM BKN050=



000
FTUS41 KAKQ 222300
TAFPHF
TAF
KPHF 222340Z 2300/2324 15006KT P6SM BKN250
     FM230800 21004KT P6SM SCT015
     FM231500 24007KT P6SM SCT250=



000
FTUS41 KAKQ 222300
TAFSBY
TAF
KSBY 222340Z 2300/2324 VRB03KT P6SM BKN250
     FM230400 VRB02KT 5SM BR BKN250
     FM230900 00000KT 1SM BR BKN001
     FM231300 22004KT 4SM BR SCT250
     FM231500 22007KT P6SM SCT250
      AMD NOT SKED=



000
FTUS41 KAKQ 222300
TAFRIC
TAF
KRIC 222340Z 2300/2324 12007KT P6SM SCT080 BKN250
     FM230400 18003KT P6SM BKN250
     FM230900 22003KT 5SM BR BKN250
     FM231300 24006KT P6SM SCT250=



000
FTUS41 KAKQ 222200 AAB
TAFECG
TAF AMD
KECG 222201Z 2222/2318 10009KT P6SM SCT025 OVC040
      TEMPO 2222/2224 4SM -RA BR OVC015
     FM230300 22004KT P6SM SCT025 BKN100=



000
FTUS41 KAKQ 222000 CCA
TAFECG
TAF COR
KECG 222021Z 2220/2318 10009KT P6SM SCT025 OVC040
      TEMPO 2220/2222 4SM -RA BR OVC015
     FM222200 12008KT P6SM SCT025 BKN040
     FM230300 22004KT P6SM SCT025 BKN100=



000
FTUS41 KAKQ 222000 AAA
TAFECG
TAF AMD
KECG 222005Z 2220/2318 10009KT P6SM VCSH BKN015 OVC040
      TEMPO 2220/2222 4SM -RA BR OVC015
     FM222200 12008KT P6SM SCT025 BKN040
     FM230300 22004KT P6SM SCT025 BKN100=



000
FTUS41 KAKQ 221700
TAFORF
TAF
KORF 221734Z 2218/2318 09008KT P6SM SCT025 BKN250
     FM222000 13009KT P6SM SCT025 BKN250
     FM230000 16006KT P6SM SCT015 BKN250
     FM230300 21005KT P6SM SCT015 BKN250=



000
FTUS41 KAKQ 221700
TAFRIC
TAF
KRIC 221734Z 2218/2318 14007KT P6SM SCT030 BKN050
     FM230000 18004KT P6SM BKN250=



000
FTUS41 KAKQ 221700
TAFSBY
TAF
KSBY 221734Z 2218/2318 15007KT P6SM SKC
     FM230000 VRB03KT P6SM BKN250
     FM230400 VRB02KT 5SM BR BKN250
     FM230800 00000KT 3SM BR SCT001 BKN250
      AMD NOT SKED=



000
FTUS41 KAKQ 221700
TAFECG
TAF
KECG 221734Z 2218/2318 10010KT P6SM SCT025 BKN060
     FM222000 14009KT P6SM BKN025 OVC060
     FM230300 22004KT P6SM SCT025 BKN100=



000
FTUS41 KAKQ 221700
TAFPHF
TAF
KPHF 221734Z 2218/2318 10010KT P6SM SCT025 BKN250
     FM222300 15006KT P6SM SCT015 BKN250
     FM230400 21004KT P6SM SCT015 BKN250=



000
FTUS41 KAKQ 221500 AAA
TAFPHF
TAF AMD
KPHF 221528Z 2215/2312 09008KT P6SM SCT025 BKN250
     FM222000 12009KT P6SM SCT035 BKN100=



000
FTUS41 KAKQ 221500 AAB
TAFORF
TAF AMD
KORF 221527Z 2215/2312 08009KT P6SM SCT015 BKN250
     FM221800 12008KT P6SM SCT035 BKN250
     FM230000 16005KT P6SM BKN035 BKN100=



000
FTUS41 KAKQ 221400 AAA
TAFORF
TAF AMD
KORF 221402Z 2214/2312 11005KT P6SM SCT015 BKN250
      TEMPO 2214/2216 BKN015
     FM221800 12008KT P6SM BKN035 BKN250
     FM230000 16005KT P6SM BKN035 BKN100=



000
FTUS41 KAKQ 221300 AAA
TAFRIC
TAF AMD
KRIC 221301Z 2213/2312 VRB03KT P6SM SCT040 BKN250
     FM221500 16008KT P6SM SCT040 BKN250
     FM222300 18005KT P6SM OVC250=



000
FTUS41 KAKQ 221100 CCA
TAFORF
TAF COR
KORF 221155Z 2212/2312 VRB03KT P6SM SCT009 BKN150
      TEMPO 2212/2213 OVC009
     FM221400 11005KT P6SM SCT020 BKN040
     FM222000 08005KT P6SM BKN035 BKN100=



000
FTUS41 KAKQ 221100
TAFORF
TAF
KORF 221134Z 2212/2312 VRB03KT P6SM FEW008 SCT020 BKN150
     FM221400 11005KT P6SM SCT020 BKN040
     FM222000 08005KT P6SM BKN035 BKN100=



000
FTUS41 KAKQ 221100
TAFPHF
TAF
KPHF 221134Z 2212/2312 10004KT P6SM SCT020 BKN110
     FM221400 12005KT P6SM BKN025 BKN040
     FM222000 12009KT P6SM SCT035 BKN100=



000
FTUS41 KAKQ 221100
TAFSBY
TAF
KSBY 221134Z 2212/2312 00000KT 5SM BR SCT004 SCT060
      TEMPO 2212/2213 3SM BR BKN001
     FM221400 12003KT 6SM BR SCT060
     FM221700 14007KT P6SM SCT025 BKN100
     FM222300 17006KT P6SM OVC250
      AMD NOT SKED=



000
FTUS41 KAKQ 221100
TAFECG
TAF
KECG 221134Z 2212/2312 06003KT P6SM SCT030 BKN060
     FM221400 08007KT P6SM BKN050
     FM222000 12009KT P6SM BKN035=



000
FTUS41 KAKQ 221100
TAFRIC
TAF
KRIC 221134Z 2212/2312 VRB03KT 4SM BR SCT004 BKN060
     FM221500 16007KT P6SM BKN040
     FM222300 18005KT P6SM OVC250=



000
FTUS41 KAKQ 221000 AAB
TAFECG
TAF AMD
KECG 221024Z 2210/2306 06003KT P6SM SCT007 SCT030 BKN060
      TEMPO 2211/2212 4SM BR BKN025
     FM221400 08007KT P6SM BKN060
     FM222000 12009KT P6SM BKN035=



000
FTUS41 KAKQ 220800 AAA
TAFORF
TAF AMD
KORF 220847Z 2209/2306 VRB03KT P6SM FEW007 SCT020
     FM221400 11005KT P6SM SCT020 BKN040
     FM222000 08005KT P6SM BKN035 BKN100=



000
FTUS41 KAKQ 220800 AAA
TAFRIC
TAF AMD
KRIC 220817Z 2208/2306 VRB03KT 6SM BR SCT006 BKN050
      TEMPO 2209/2212 4SM BR BKN006
     FM221500 16007KT P6SM BKN050
     FM222300 18005KT P6SM OVC250=



000
FTUS41 KAKQ 220700 AAA
TAFPHF
TAF AMD
KPHF 220738Z 2208/2306 10004KT P6SM SCT025
      TEMPO 2209/2211 4SM BR
     FM221400 12005KT P6SM BKN025 BKN040
     FM222000 12009KT P6SM SCT035 BKN100=



000
FTUS41 KAKQ 220700 AAA
TAFECG
TAF AMD
KECG 220736Z 2208/2306 06007KT P6SM SCT020 BKN100
     FM220830 05003KT 6SM BR SCT007 BKN015
      TEMPO 2209/2211 4SM BR BKN007
     FM221400 07006KT P6SM BKN025
     FM222000 10008KT P6SM BKN025=



000
FTUS41 KAKQ 220500 CCA
TAFSBY
TAF COR
KSBY 220558Z 2206/2306 00000KT P6SM SCT020
     FM220700 00000KT 4SM BR SCT007 OVC012
      TEMPO 2208/2210 2SM BR BKN007
     FM221300 12003KT P6SM BKN015
     FM221700 14007KT P6SM SCT025 BKN100
     FM230000 17006KT P6SM OVC250=



000
FTUS41 KAKQ 220500
TAFPHF
TAF
KPHF 220540Z 2206/2306 10004KT P6SM SCT025
     FM220800 09003KT 4SM BR SCT008 BKN020
     FM221400 12005KT P6SM BKN025 BKN040
     FM222000 12009KT P6SM SCT035 BKN100=



000
FTUS41 KAKQ 220500
TAFORF
TAF
KORF 220540Z 2206/2306 11003KT P6SM VCSH SCT020
     FM220800 07003KT P6SM SCT007 BKN015
     FM221400 11005KT P6SM SCT020 BKN040
     FM222000 08005KT P6SM BKN035 BKN100=



000
FTUS41 KAKQ 220500
TAFECG
TAF
KECG 220540Z 2206/2306 08007KT P6SM SCT020 BKN100
     FM220700 06004KT 6SM BR SCT007 BKN015
      TEMPO 2208/2211 4SM BR BKN007
     FM221400 07006KT P6SM BKN025
     FM222000 10008KT P6SM BKN025=



000
FTUS41 KAKQ 220500
TAFSBY
TAF
KSBY 220540Z 2206/2306 13004KT P6SM SCT030
      TEMPO 2206/2207 BKN015
     FM220700 00000KT 4SM BR OVC005
     FM221300 16003KT P6SM BKN015
     FM221600 17007KT P6SM SCT025 BKN100=



000
FTUS41 KAKQ 220500
TAFRIC
TAF
KRIC 220540Z 2206/2306 00000KT P6SM FEW020 SCT050 BKN250
     FM220800 15003KT P6SM SCT009 BKN015
     FM221500 16007KT P6SM BKN040
     FM222300 18005KT P6SM OVC250=



000
FTUS41 KAKQ 220400 AAA
TAFRIC
TAF AMD
KRIC 220457Z 2205/2224 00000KT P6SM FEW020 SCT050 BKN250
     FM220800 15003KT P6SM SCT009 BKN015
      TEMPO 2209/2211 BKN009
     FM221500 16007KT P6SM BKN040
     FM222300 18005KT P6SM OVC250=



000
FTUS41 KAKQ 220100 AAA
TAFORF
TAF AMD
KORF 220129Z 2201/2224 09004KT P6SM BKN080
      TEMPO 2203/2205 BKN015
     FM220500 11003KT P6SM OVC015
     FM220700 09003KT P6SM BKN008 OVC015
     FM221300 07005KT P6SM SCT015 BKN050
     FM221600 08008KT P6SM BKN025=



000
FTUS41 KAKQ 220100 AAA
TAFPHF
TAF AMD
KPHF 220129Z 2201/2224 11006KT P6SM SCT020 BKN060
      TEMPO 2203/2205 BKN015
     FM220500 10004KT P6SM BKN015
     FM220700 09003KT 5SM BR OVC008
     FM221000 12005KT P6SM BKN015 BKN050
     FM221600 12009KT P6SM SCT025 BKN100=



000
FTUS41 KAKQ 212300 CCA
TAFSBY
TAF COR
KSBY 212354Z 2200/2224 13004KT P6SM SCT030
      TEMPO 2203/2207 BKN015
     FM220700 00000KT 4SM BR OVC005
     FM221300 16003KT P6SM BKN015
     FM221600 17007KT P6SM SCT025 BKN100=



000
FTUS41 KAKQ 212300 CCA
TAFPHF
TAF COR
KPHF 212350Z 2200/2224 11006KT P6SM SCT020 BKN060
      TEMPO 2200/2203 BKN015
     FM220300 10004KT P6SM BKN015
     FM220500 09003KT 5SM BR OVC008
     FM221000 12005KT P6SM BKN015 BKN050
     FM221600 12009KT P6SM SCT025 BKN100=



000
FTUS41 KAKQ 212300
TAFRIC
TAF
KRIC 212340Z 2200/2224 13005KT P6SM SCT025 BKN250
      TEMPO 2200/2204 BKN025
     FM220400 17003KT 5SM BR OVC015
     FM220800 15003KT P6SM BKN009
     FM221500 16005KT P6SM SCT025 BKN040=



000
FTUS41 KAKQ 212300
TAFSBY
TAF
KSBY 212340Z 2200/2224 13005KT P6SM SCT030
      TEMPO 2200/2201 BKN025
     FM220100 00000KT 5SM BR BKN015
     FM220600 VRB03KT 1SM BR BKN005
     FM221300 16005KT P6SM SCT025 BKN040=



000
FTUS41 KAKQ 212300
TAFECG
TAF
KECG 212340Z 2200/2224 08007KT P6SM VCSH SCT010 BKN100
      TEMPO 2203/2207 BKN007
     FM220700 06004KT 4SM BR OVC008
     FM221300 07006KT P6SM BKN015
     FM221800 10008KT P6SM BKN025=



000
FTUS41 KAKQ 212300
TAFPHF
TAF
KPHF 212340Z 2200/2224 11006KT P6SM SCT020 BKN060
     FM220300 10004KT P6SM BKN015
     FM221300 12005KT P6SM BKN015 BKN050
     FM221600 12009KT P6SM SCT025 BKN100=



000
FTUS41 KAKQ 212300
TAFORF
TAF
KORF 212340Z 2200/2224 09006KT P6SM SCT020 OVC050
      TEMPO 2200/2202 BKN015
     FM220200 12003KT P6SM OVC015
     FM220500 13003KT P6SM BKN008 OVC015
     FM221300 07005KT P6SM SCT015 BKN050
     FM221600 08008KT P6SM BKN025=



000
FTUS41 KAKQ 212300 AAB
TAFRIC
TAF AMD
KRIC 212313Z 2123/2218 13005KT P6SM SCT025 BKN250
      TEMPO 2123/2202 BKN025
     FM220400 17003KT 5SM BR OVC015
     FM220800 15003KT P6SM BKN009
     FM221400 16005KT P6SM SCT040=



000
FTUS41 KAKQ 212200 AAA
TAFSBY
TAF AMD
KSBY 212208Z 2122/2218 13005KT P6SM SCT030
      TEMPO 2122/2201 BKN025
     FM220100 00000KT 5SM BR BKN015
     FM220600 VRB03KT 1SM BR BKN005
     FM221300 16005KT P6SM SCT040=



000
FTUS41 KAKQ 212100 AAA
TAFRIC
TAF AMD
KRIC 212158Z 2122/2218 13005KT P6SM SCT025 BKN080
     FM220400 17003KT 5SM BR OVC015
     FM220800 15003KT P6SM BKN009
     FM221400 16005KT P6SM SCT040=



000
FTUS41 KAKQ 211900 AAA
TAFORF
TAF AMD
KORF 211954Z 2120/2218 09006KT P6SM SCT020 OVC050
      TEMPO 2120/2124 BKN015
     FM220400 13005KT P6SM BKN015
     FM221300 10005KT P6SM SCT030=



000
FTUS41 KAKQ 211900 AAA
TAFPHF
TAF AMD
KPHF 211947Z 2120/2218 11006KT P6SM SCT020 BKN060
      TEMPO 2120/2124 BKN015 OVC040
     FM220300 14004KT P6SM BKN015
     FM221300 15005KT P6SM SCT030=



000
FTUS41 KAKQ 211700
TAFECG
TAF
KECG 211740Z 2118/2218 12008KT P6SM VCSH BKN080
     FM220200 VRB04KT P6SM SCT020 SCT100
     FM221300 09006KT P6SM FEW020 SCT200=



000
FTUS41 KAKQ 211700
TAFRIC
TAF
KRIC 211740Z 2118/2218 13004KT P6SM BKN020
      TEMPO 2118/2121 5SM -RA BR SCT020 BKN040
     FM220700 15003KT P6SM BKN009
     FM221400 16005KT P6SM SCT040=



000
FTUS41 KAKQ 211700
TAFORF
TAF
KORF 211740Z 2118/2218 09006KT P6SM SCT020 BKN060
     FM220200 13005KT P6SM BKN015
     FM221300 10005KT P6SM SCT030=



000
FTUS41 KAKQ 211700
TAFSBY
TAF
KSBY 211740Z 2118/2218 11006KT P6SM SCT030
     FM220100 00000KT 5SM BR BKN015
     FM220600 VRB03KT 1SM BR BKN005
     FM221300 16005KT P6SM SCT040=



000
FTUS41 KAKQ 211700
TAFPHF
TAF
KPHF 211740Z 2118/2218 11006KT P6SM SCT020 BKN060
     FM220300 14004KT P6SM BKN015
     FM221300 15005KT P6SM SCT030=



000
FTUS41 KAKQ 211500 AAA
TAFRIC
TAF AMD
KRIC 211504Z 2115/2212 13005KT 5SM -RA BR SCT030 BKN050
      TEMPO 2115/2118 P6SM NSW
     FM211800 14004KT P6SM SCT050 BKN100
     FM220800 14003KT P6SM BKN009=



000
FTUS41 KAKQ 211100
TAFSBY
TAF
KSBY 211135Z 2112/2212 04002KT P6SM BKN003 OVC020
      TEMPO 2112/2114 BKN015
     FM211400 05004KT P6SM BKN015
     FM211600 11006KT P6SM SCT030 BKN060
     FM220000 VRB02KT 5SM BR SCT050 BKN100
     FM220800 VRB02KT P6SM BKN005=



000
FTUS41 KAKQ 211100
TAFRIC
TAF
KRIC 211135Z 2112/2212 10004KT P6SM SCT008 OVC060
      TEMPO 2112/2114 BKN008
     FM211500 13006KT P6SM BKN050
     FM220000 14004KT P6SM SCT050 BKN100
     FM220800 14003KT P6SM BKN009=



000
FTUS41 KAKQ 211100
TAFECG
TAF
KECG 211135Z 2112/2212 09006KT P6SM SCT015 OVC060
      TEMPO 2112/2114 BKN015
     FM211500 10007KT P6SM SCT025 BKN060
     FM220000 09005KT P6SM SCT050 BKN100
     FM220800 05005KT P6SM BKN015=



000
FTUS41 KAKQ 211100
TAFPHF
TAF
KPHF 211135Z 2112/2212 09005KT P6SM SCT015 OVC060
      TEMPO 2112/2114 BKN015
     FM211500 11007KT P6SM BKN025 OVC060
     FM220000 13004KT P6SM SCT050 BKN100
     FM220800 10003KT P6SM BKN015=



000
FTUS41 KAKQ 211100
TAFORF
TAF
KORF 211135Z 2112/2212 07006KT P6SM SCT015 OVC060
      TEMPO 2112/2114 BKN015
     FM211500 09008KT P6SM BKN025 OVC060
     FM220000 13005KT P6SM SCT050 BKN100
     FM220800 08004KT P6SM BKN015=



000
FTUS41 KAKQ 211000 AAB
TAFSBY
TAF AMD
KSBY 211005Z 2110/2206 04002KT P6SM BKN003 OVC020
      TEMPO 2110/2113 3SM BR BKN015
     FM211300 06004KT 5SM BR BKN015
     FM211600 11006KT P6SM SCT030 BKN060
     FM220000 VRB03KT 5SM BR SCT050 BKN100=



000
FTUS41 KAKQ 210900 AAB
TAFECG
TAF AMD
KECG 210932Z 2110/2206 10005KT P6SM SCT015 OVC060
      TEMPO 2110/2113 5SM BR BKN015
     FM211500 10007KT P6SM SCT025 BKN060
     FM220000 10005KT P6SM SCT050 BKN100=



000
FTUS41 KAKQ 210900 AAB
TAFPHF
TAF AMD
KPHF 210930Z 2110/2206 10004KT P6SM SCT010 OVC060
      TEMPO 2110/2113 5SM BR BKN009
     FM211500 11007KT P6SM BKN025 OVC050
     FM220000 13004KT P6SM SCT050 BKN100=



000
FTUS41 KAKQ 210900 AAB
TAFORF
TAF AMD
KORF 210929Z 2109/2206 10005KT P6SM SCT015 OVC060
      TEMPO 2109/2113 BKN010
     FM211500 09008KT P6SM BKN025 OVC050
     FM220000 13005KT P6SM SCT050 BKN100=



000
FTUS41 KAKQ 210900 AAB
TAFRIC
TAF AMD
KRIC 210928Z 2109/2206 11004KT P6SM BKN008 OVC060
      TEMPO 2109/2113 5SM BR SCT008
     FM211500 13006KT P6SM BKN050
     FM220000 14004KT P6SM SCT050 BKN100=



000
FTUS41 KAKQ 210700 AAA
TAFSBY
TAF AMD
KSBY 210755Z 2108/2206 04002KT P6SM SCT010 BKN060
      TEMPO 2108/2112 3SM BR BKN009
     FM211300 06004KT 5SM BR BKN015
     FM211600 11006KT P6SM SCT030 BKN060
     FM220000 VRB03KT 5SM BR SCT050 BKN100=



000
FTUS41 KAKQ 210700 AAA
TAFECG
TAF AMD
KECG 210753Z 2108/2206 09004KT P6SM SCT015 BKN060
      TEMPO 2108/2112 5SM BR BKN015
     FM211500 10007KT P6SM SCT025 BKN060
     FM220000 10005KT P6SM SCT050 BKN100=



000
FTUS41 KAKQ 210700 AAA
TAFPHF
TAF AMD
KPHF 210752Z 2108/2206 13004KT P6SM SCT010 OVC060
      TEMPO 2108/2112 5SM BR BKN009
     FM211500 11007KT P6SM BKN025 OVC050
     FM220000 13004KT P6SM SCT050 BKN100=



000
FTUS41 KAKQ 210700 AAA
TAFORF
TAF AMD
KORF 210751Z 2108/2206 08005KT P6SM SCT015 OVC060
      TEMPO 2108/2112 BKN010
     FM211500 09008KT P6SM BKN025 OVC050
     FM220000 13005KT P6SM SCT050 BKN100=



000
FTUS41 KAKQ 210700 AAA
TAFRIC
TAF AMD
KRIC 210749Z 2108/2206 11004KT P6SM SCT010 OVC060
      TEMPO 2108/2112 5SM BR BKN009
     FM211500 13006KT P6SM BKN050
     FM220000 14004KT P6SM SCT050 BKN100=



    US Dept of Commerce
    National Oceanic and Atmospheric Administration
    National Weather Service
    1325 East West Highway
    Silver Spring, MD 20910
    Page Author: NWS Internet Services Team
Disclaimer
Information Quality
Credits
Glossary
Privacy Policy
Freedom of Information Act (FOIA)
About Us
Career Opportunities